Time;durP1;ratioP1;P1;durP2;ratioP2;P2;SDS_P1;SDS_P2;PMS_P1;PMS_P2;Temp;Humidity;BMP_temperature;BMP_pressure;BME280_temperature;BME280_humidity;BME280_pressure;Samples;Min_cycle;Max_cycle;Signal;HPM_P1;HPM_P2
2021/08/23 00:04:27;;;;;;;0.90;0.90;;;;;;;14.87;90.37;100706.72;8547173;34;20734;-72
2021/08/23 00:09:30;;;;;;;1.00;0.85;;;;;;;14.85;90.31;100711.41;8522529;34;20193;-72
2021/08/23 00:14:33;;;;;;;0.43;0.43;;;;;;;14.78;90.84;100713.84;8522251;34;20185;-72
2021/08/23 00:19:37;;;;;;;1.25;0.65;;;;;;;14.77;90.28;100712.13;8546147;34;20948;-72
2021/08/23 00:24:40;;;;;;;0.50;0.50;;;;;;;14.57;90.23;100710.44;8545834;34;20175;-72
2021/08/23 00:29:44;;;;;;;0.32;0.32;;;;;;;14.57;90.23;100722.09;8545563;34;20201;-72
2021/08/23 00:34:49;;;;;;;0.77;0.77;;;;;;;14.54;90.21;100721.53;8545653;34;20462;-72
2021/08/23 00:39:53;;;;;;;0.63;0.63;;;;;;;14.47;89.33;100720.38;8545116;34;20740;-72
2021/08/23 00:44:56;;;;;;;0.40;0.40;;;;;;;14.32;89.86;100723.47;8545478;34;20194;-72
2021/08/23 00:50:01;;;;;;;0.30;0.30;;;;;;;14.40;90.04;100724.63;8602135;34;20665;-72
2021/08/23 00:55:05;;;;;;;0.65;0.65;;;;;;;14.38;89.62;100731.06;8601265;34;20617;-72
2021/08/23 01:00:11;;;;;;;0.85;0.85;;;;;;;14.35;89.77;100727.75;8576676;34;20288;-72
2021/08/23 01:05:22;;;;;;;2.67;0.60;;;;;;;14.40;90.35;100732.75;8600666;34;20177;-72
2021/08/23 01:10:30;;;;;;;0.20;0.20;;;;;;;14.40;89.71;100741.75;8601296;34;20216;-72
2021/08/23 01:15:33;;;;;;;1.27;0.93;;;;;;;14.45;90.36;100739.44;8601124;34;20240;-72
2021/08/23 01:20:45;;;;;;;0.98;0.93;;;;;;;14.37;90.01;100737.44;8601362;34;20569;-72
2021/08/23 01:25:49;;;;;;;2.25;0.80;;;;;;;14.39;89.96;100737.31;8563537;34;20142;-72
2021/08/23 01:31:22;;;;;;;1.60;1.50;;;;;;;14.43;90.06;100746.84;8581848;34;20145;-72
2021/08/23 01:36:27;;;;;;;1.65;1.55;;;;;;;14.65;90.20;100761.09;8563828;34;20968;-72
2021/08/23 01:41:30;;;;;;;1.75;1.48;;;;;;;14.71;89.64;100765.94;8560631;34;20188;-71
2021/08/23 01:46:33;;;;;;;2.83;1.73;;;;;;;14.59;89.87;100762.53;8592695;34;20204;-72
2021/08/23 01:51:38;;;;;;;0.68;0.68;;;;;;;14.66;89.83;100771.75;8600332;34;20142;-71
2021/08/23 01:56:41;;;;;;;3.03;2.75;;;;;;;14.76;90.31;100775.31;8599771;34;20181;-71
2021/08/23 02:01:44;;;;;;;1.08;1.08;;;;;;;14.91;90.54;100774.88;8600516;34;20215;-71
2021/08/23 02:06:49;;;;;;;1.05;0.93;;;;;;;15.00;89.84;100766.78;8599114;34;20245;-72
2021/08/23 02:11:52;;;;;;;4.93;1.30;;;;;;;14.92;90.13;100779.28;8599909;34;20230;-72
2021/08/23 02:16:55;;;;;;;0.90;0.90;;;;;;;14.99;90.28;100772.31;8599516;34;20185;-72
2021/08/23 02:22:02;;;;;;;0.90;0.90;;;;;;;15.04;90.22;100772.75;8603741;34;20525;-72
2021/08/23 02:27:06;;;;;;;5.05;1.20;;;;;;;15.08;90.31;100782.28;8604430;34;20232;-72
2021/08/23 02:32:09;;;;;;;1.75;1.25;;;;;;;15.06;90.00;100787.00;8604649;34;20888;-72
2021/08/23 02:37:13;;;;;;;1.27;1.27;;;;;;;15.06;90.12;100792.41;8604206;34;21410;-72
2021/08/23 02:42:16;;;;;;;0.50;0.43;;;;;;;15.07;89.89;100813.03;8604771;34;20138;-72
2021/08/23 02:47:19;;;;;;;1.42;1.05;;;;;;;15.10;89.98;100807.34;8603971;34;20427;-72
2021/08/23 02:52:23;;;;;;;2.25;1.42;;;;;;;15.01;89.83;100821.75;8604206;34;20939;-72
2021/08/23 02:57:26;;;;;;;1.10;1.10;;;;;;;15.00;90.06;100817.31;8603622;34;20157;-72
2021/08/23 03:02:29;;;;;;;0.60;0.60;;;;;;;15.00;89.88;100818.19;8603889;34;21088;-72
2021/08/23 03:07:34;;;;;;;3.22;0.77;;;;;;;14.98;89.75;100825.56;8603658;34;20675;-72
2021/08/23 03:12:37;;;;;;;1.95;1.60;;;;;;;15.06;90.08;100819.47;8603883;34;20165;-72
2021/08/23 03:17:41;;;;;;;2.10;1.88;;;;;;;15.05;90.02;100824.00;8603662;34;20216;-72
2021/08/23 03:22:46;;;;;;;1.40;1.30;;;;;;;15.02;89.58;100827.00;8603716;34;20273;-72
2021/08/23 03:27:49;;;;;;;1.00;1.00;;;;;;;14.97;89.73;100826.56;8603456;34;20246;-72
2021/08/23 03:32:53;;;;;;;2.30;1.35;;;;;;;15.00;89.51;100830.81;8606481;34;20189;-72
2021/08/23 03:37:59;;;;;;;2.22;2.05;;;;;;;14.98;89.64;100833.69;8579045;34;20457;-72
2021/08/23 03:43:02;;;;;;;1.10;1.08;;;;;;;14.91;89.43;100832.53;8602945;34;20146;-72
2021/08/23 03:48:06;;;;;;;1.48;1.35;;;;;;;14.90;89.42;100828.13;8602611;34;20815;-72
2021/08/23 03:53:11;;;;;;;0.93;0.88;;;;;;;14.91;89.46;100843.38;8601231;34;20588;-72
2021/08/23 03:58:14;;;;;;;1.38;1.38;;;;;;;14.91;89.50;100840.66;8601916;34;20561;-71
2021/08/23 04:03:17;;;;;;;0.57;0.57;;;;;;;14.88;89.43;100849.06;8602509;34;20461;-71
2021/08/23 04:08:21;;;;;;;1.27;1.17;;;;;;;14.86;89.50;100855.59;8602903;34;20336;-71
2021/08/23 04:13:24;;;;;;;2.42;1.80;;;;;;;14.82;89.68;100864.00;8602460;34;20236;-71
2021/08/23 04:18:28;;;;;;;2.20;2.00;;;;;;;14.81;89.26;100875.81;8602092;34;20181;-71
2021/08/23 04:23:33;;;;;;;1.73;1.58;;;;;;;14.80;89.12;100870.53;8602228;34;20377;-71
2021/08/23 04:28:37;;;;;;;2.92;1.42;;;;;;;14.78;89.57;100880.63;8601437;34;20444;-71
2021/08/23 04:33:42;;;;;;;2.60;2.42;;;;;;;14.73;89.46;100881.06;8577606;34;21024;-71
2021/08/23 04:38:47;;;;;;;1.40;1.30;;;;;;;14.74;89.42;100888.19;8601911;34;20975;-71
2021/08/23 04:43:52;;;;;;;7.55;2.60;;;;;;;14.73;89.36;100885.63;8601251;34;20185;-71
2021/08/23 04:48:55;;;;;;;1.70;1.52;;;;;;;14.75;89.27;100889.88;8601554;34;20182;-71
2021/08/23 04:53:59;;;;;;;5.88;2.15;;;;;;;14.77;89.20;100901.41;8601185;34;21573;-71
2021/08/23 04:59:02;;;;;;;3.47;1.63;;;;;;;14.75;89.36;100899.84;8577468;34;20223;-71
2021/08/23 05:04:06;;;;;;;0.98;0.98;;;;;;;14.70;89.24;100896.69;8601223;34;21676;-71
2021/08/23 05:09:10;;;;;;;3.17;1.17;;;;;;;14.70;89.21;100902.09;8606047;34;20697;-71
2021/08/23 05:14:13;;;;;;;1.10;1.10;;;;;;;14.68;89.15;100904.97;8606858;34;20642;-71
2021/08/23 05:19:16;;;;;;;1.02;1.02;;;;;;;14.76;89.37;100915.09;8582498;34;20444;-71
2021/08/23 05:24:20;;;;;;;0.80;0.80;;;;;;;14.75;89.31;100916.06;8605599;34;20588;-71
2021/08/23 05:29:23;;;;;;;1.45;1.35;;;;;;;14.72;88.82;100913.66;8606212;34;20232;-72
2021/08/23 05:34:26;;;;;;;1.65;1.55;;;;;;;14.69;89.03;100914.78;8607826;34;21641;-72
2021/08/23 05:39:31;;;;;;;0.47;0.47;;;;;;;14.72;88.95;100924.47;8606016;34;20150;-72
2021/08/23 05:44:34;;;;;;;0.88;0.88;;;;;;;14.72;88.93;100940.69;8581277;34;20188;-72
2021/08/23 05:49:37;;;;;;;1.45;1.05;;;;;;;14.80;88.99;100928.19;8603689;34;20185;-72
2021/08/23 05:54:43;;;;;;;1.98;1.88;;;;;;;14.85;89.05;100930.47;8602921;34;20189;-71
2021/08/23 05:59:45;;;;;;;1.42;1.33;;;;;;;14.91;88.81;100939.88;8605159;34;20193;-71
2021/08/23 06:04:48;;;;;;;1.25;1.20;;;;;;;14.85;87.99;100941.31;8605310;34;20181;-71
2021/08/23 06:09:53;;;;;;;1.67;1.58;;;;;;;14.85;88.15;100937.75;8606112;34;20234;-72
2021/08/23 06:14:56;;;;;;;2.70;2.35;;;;;;;14.98;87.98;100952.72;8605076;34;20227;-71
2021/08/23 06:19:59;;;;;;;1.77;1.38;;;;;;;15.33;88.17;100954.06;8593130;34;21523;-71
2021/08/23 06:25:05;;;;;;;1.15;1.05;;;;;;;15.49;87.77;100953.50;8548581;34;20186;-71
2021/08/23 06:30:10;;;;;;;1.00;0.98;;;;;;;15.41;86.59;100953.34;8548989;34;20257;-71
2021/08/23 06:35:13;;;;;;;1.40;1.17;;;;;;;15.39;86.89;100961.63;8540853;34;20692;-71
2021/08/23 06:40:18;;;;;;;2.13;1.83;;;;;;;15.41;85.88;100969.59;8604657;34;20177;-71
2021/08/23 06:45:21;;;;;;;1.15;1.15;;;;;;;15.29;85.05;100971.56;8604114;34;20195;-70
2021/08/23 06:50:24;;;;;;;0.65;0.65;;;;;;;15.40;85.00;100986.84;8580615;34;20193;-70
2021/08/23 06:55:28;;;;;;;2.28;1.23;;;;;;;15.69;85.23;100989.59;8603970;34;20189;-70
2021/08/23 07:00:31;;;;;;;2.15;1.35;;;;;;;15.60;85.07;101007.50;8603860;34;20199;-71
2021/08/23 07:05:35;;;;;;;2.88;2.63;;;;;;;15.35;83.29;101003.50;8603583;34;20185;-71
2021/08/23 07:10:39;;;;;;;1.17;1.17;;;;;;;15.57;83.87;101001.53;8604120;34;20660;-71
2021/08/23 07:15:42;;;;;;;5.05;1.95;;;;;;;15.89;82.94;101004.81;8603766;34;21050;-71
2021/08/23 07:20:46;;;;;;;1.08;1.08;;;;;;;15.93;82.35;101006.25;8590829;34;21020;-71
2021/08/23 07:25:50;;;;;;;1.60;1.50;;;;;;;15.80;81.74;101012.97;8602682;34;20189;-71
2021/08/23 07:30:53;;;;;;;1.58;1.52;;;;;;;15.74;81.28;101017.06;8581061;34;20638;-71
2021/08/23 07:35:57;;;;;;;2.00;1.65;;;;;;;15.93;80.03;101025.22;8605024;34;20185;-70
2021/08/23 07:41:03;;;;;;;2.00;1.80;;;;;;;16.16;79.42;101024.88;8604479;34;20746;-70
2021/08/23 07:46:06;;;;;;;3.55;2.05;;;;;;;16.35;78.15;101037.59;8579038;34;20180;-70
2021/08/23 07:51:10;;;;;;;1.00;0.98;;;;;;;16.34;77.96;101036.69;8603056;34;20216;-71
2021/08/23 07:56:14;;;;;;;0.45;0.45;;;;;;;16.33;78.11;101039.56;8579507;34;20157;-70
2021/08/23 08:01:17;;;;;;;3.50;1.50;;;;;;;16.37;77.04;101049.13;8572511;34;20138;-71
2021/08/23 08:06:20;;;;;;;1.65;1.58;;;;;;;16.54;76.96;101055.66;8549729;34;20804;-71
2021/08/23 08:11:25;;;;;;;1.50;1.40;;;;;;;16.59;77.05;101054.22;8574682;34;20777;-71
2021/08/23 08:16:28;;;;;;;2.72;1.95;;;;;;;16.44;76.98;101061.09;8570318;34;20224;-71
2021/08/23 08:21:31;;;;;;;1.85;1.00;;;;;;;16.42;77.09;101064.94;8595204;34;22020;-71
2021/08/23 08:26:36;;;;;;;1.98;1.58;;;;;;;16.43;75.56;101064.81;8590090;34;20255;-71
2021/08/23 08:31:39;;;;;;;0.73;0.73;;;;;;;16.34;74.93;101068.38;8601797;34;20662;-71
2021/08/23 08:36:42;;;;;;;0.40;0.40;;;;;;;16.36;75.48;101079.94;8578816;34;20808;-71
2021/08/23 08:41:46;;;;;;;0.85;0.85;;;;;;;16.28;75.09;101086.09;8545569;34;20251;-71
2021/08/23 08:46:51;;;;;;;2.38;1.40;;;;;;;16.34;74.93;101088.22;8545196;34;20169;-71
2021/08/23 08:51:57;;;;;;;1.70;1.05;;;;;;;16.50;74.70;101098.47;8549593;34;20188;-71
2021/08/23 08:57:03;;;;;;;0.68;0.68;;;;;;;16.53;74.82;101106.31;8587327;34;20185;-71
2021/08/23 09:02:06;;;;;;;1.30;1.27;;;;;;;16.45;74.59;101114.31;8601000;34;20245;-71
2021/08/23 09:07:13;;;;;;;0.60;0.60;;;;;;;16.43;75.18;101115.47;8577073;34;20272;-71
2021/08/23 09:12:17;;;;;;;1.10;1.05;;;;;;;16.40;74.81;101118.47;8601581;34;20243;-71
2021/08/23 09:17:23;;;;;;;2.45;0.98;;;;;;;16.41;74.56;101122.91;8576668;34;20181;-71
2021/08/23 09:22:27;;;;;;;1.77;1.27;;;;;;;16.57;74.40;101124.00;8577628;34;20138;-71
2021/08/23 09:27:32;;;;;;;4.28;0.93;;;;;;;16.91;73.76;101123.50;8553792;34;20501;-71
2021/08/23 09:32:48;;;;;;;1.02;1.02;;;;;;;17.22;72.49;101125.97;8544702;34;20218;-71
2021/08/23 09:37:51;;;;;;;0.70;0.70;;;;;;;17.47;71.16;101136.16;8543702;34;20185;-71
2021/08/23 09:43:08;;;;;;;2.03;1.92;;;;;;;17.50;70.69;101128.69;8543882;34;21700;-71
2021/08/23 09:48:12;;;;;;;2.13;1.40;;;;;;;17.41;71.26;101134.03;8549726;34;20202;-71
2021/08/23 09:53:19;;;;;;;1.52;1.42;;;;;;;17.50;70.35;101128.69;8585863;34;21094;-71
2021/08/23 09:58:26;;;;;;;1.08;1.08;;;;;;;17.83;70.98;101133.50;8600823;34;20228;-71
2021/08/23 10:03:31;;;;;;;2.45;1.42;;;;;;;18.45;68.65;101139.00;8600904;34;20887;-71
2021/08/23 10:08:50;;;;;;;0.55;0.55;;;;;;;18.96;65.16;101144.69;8600599;34;20203;-71
2021/08/23 10:13:55;;;;;;;0.63;0.63;;;;;;;18.67;65.94;101148.53;8566830;34;20194;-71
2021/08/23 10:18:58;;;;;;;0.95;0.95;;;;;;;18.56;66.15;101148.78;8543713;34;20280;-71
2021/08/23 10:24:04;;;;;;;1.10;1.02;;;;;;;18.23;67.21;101151.22;8543191;34;20250;-72
2021/08/23 10:29:10;;;;;;;2.15;1.30;;;;;;;17.97;68.34;101162.03;8543510;34;21612;-72
2021/08/23 10:34:17;;;;;;;0.38;0.38;;;;;;;17.92;68.98;101170.63;8561292;34;20424;-71
2021/08/23 10:39:22;;;;;;;0.38;0.38;;;;;;;18.25;67.96;101173.69;8570982;34;20397;-71
2021/08/23 10:44:31;;;;;;;0.60;0.60;;;;;;;18.68;67.18;101173.91;8573159;34;21499;-71
2021/08/23 10:49:43;;;;;;;0.60;0.60;;;;;;;18.94;66.55;101182.94;8551479;34;20194;-70
2021/08/23 10:54:49;;;;;;;0.30;0.30;;;;;;;19.16;65.31;101189.72;8561570;34;21523;-71
2021/08/23 10:59:56;;;;;;;0.47;0.47;;;;;;;19.90;64.45;101180.00;8547728;34;20190;-71
2021/08/23 11:05:04;;;;;;;0.93;0.75;;;;;;;20.63;60.78;101178.44;8547353;34;20182;-71
2021/08/23 11:10:11;;;;;;;1.35;1.25;;;;;;;20.78;60.74;101184.03;8547885;34;21118;-71
2021/08/23 11:15:20;;;;;;;0.47;0.47;;;;;;;20.38;61.00;101185.78;8523358;34;20153;-71
2021/08/23 11:20:27;;;;;;;0.43;0.40;;;;;;;19.88;62.32;101194.84;8523434;34;20190;-71
2021/08/23 11:25:33;;;;;;;2.10;1.30;;;;;;;19.70;62.98;101194.13;8549237;34;20679;-71
2021/08/23 11:30:40;;;;;;;0.43;0.43;;;;;;;19.34;63.61;101194.25;8546601;34;21103;-71
2021/08/23 11:35:47;;;;;;;0.98;0.98;;;;;;;19.25;64.33;101198.78;8568039;34;20697;-71
2021/08/23 11:40:50;;;;;;;1.23;1.23;;;;;;;18.84;65.78;101206.72;8587625;34;20258;-72
2021/08/23 11:45:56;;;;;;;0.52;0.52;;;;;;;18.26;67.26;101207.19;8546220;34;20186;-71
2021/08/23 11:51:00;;;;;;;1.85;0.75;;;;;;;18.06;68.30;101207.31;8546189;34;20467;-71
2021/08/23 11:56:05;;;;;;;1.23;1.13;;;;;;;18.38;68.39;101208.66;8545650;34;20194;-71
2021/08/23 12:01:14;;;;;;;0.63;0.40;;;;;;;19.24;66.76;101205.25;8547446;34;20522;-71
2021/08/23 12:06:18;;;;;;;0.80;0.75;;;;;;;20.12;62.49;101185.88;8547863;34;20665;-71
2021/08/23 12:11:21;;;;;;;0.63;0.63;;;;;;;22.90;56.87;101182.16;8545456;34;20930;-72
2021/08/23 12:16:36;;;;;;;1.20;1.10;;;;;;;25.10;49.22;101185.59;8545505;34;20236;-72
2021/08/23 12:21:41;;;;;;;0.73;0.73;;;;;;;26.04;46.32;101186.88;8545656;34;21632;-70
2021/08/23 12:26:57;;;;;;;1.05;0.40;;;;;;;26.56;46.60;101181.72;8532543;34;21343;-71
2021/08/23 12:32:08;;;;;;;1.50;1.23;;;;;;;26.39;45.38;101184.03;8590462;34;21093;-71
2021/08/23 12:37:12;;;;;;;0.50;0.50;;;;;;;27.27;44.26;101189.31;8565882;34;20194;-71
2021/08/23 12:42:21;;;;;;;0.47;0.47;;;;;;;26.32;44.75;101186.75;8556208;34;20146;-71
2021/08/23 12:47:26;;;;;;;0.35;0.35;;;;;;;23.05;51.17;101184.88;8548418;34;20147;-70
2021/08/23 12:52:29;;;;;;;0.35;0.35;;;;;;;24.36;50.98;101174.97;8572785;34;20216;-70
2021/08/23 12:57:32;;;;;;;0.73;0.73;;;;;;;25.53;46.15;101177.13;8570926;34;20146;-71
2021/08/23 13:02:37;;;;;;;0.45;0.45;;;;;;;25.69;46.46;101175.97;8600146;34;20181;-72
2021/08/23 13:07:40;;;;;;;0.68;0.68;;;;;;;26.40;44.46;101174.69;8594346;34;20197;-70
2021/08/23 13:12:43;;;;;;;2.28;1.48;;;;;;;26.41;43.09;101173.63;8544964;34;20292;-72
2021/08/23 13:17:47;;;;;;;0.20;0.20;;;;;;;26.47;44.56;101164.56;8544111;34;20251;-72
2021/08/23 13:22:51;;;;;;;0.35;0.35;;;;;;;27.26;42.36;101163.66;8546148;34;20700;-72
2021/08/23 13:27:54;;;;;;;2.17;1.60;;;;;;;27.49;41.41;101148.53;8543848;34;20276;-72
2021/08/23 13:33:00;;;;;;;4.30;3.13;;;;;;;27.18;40.48;101152.84;8576353;34;20158;-72
2021/08/23 13:38:05;;;;;;;2.72;2.53;;;;;;;26.28;42.37;101157.97;8600318;34;21254;-72
2021/08/23 13:43:10;;;;;;;4.22;2.50;;;;;;;26.88;41.20;101163.50;8600571;34;20193;-72
2021/08/23 13:48:17;;;;;;;2.78;2.50;;;;;;;27.57;39.57;101157.41;8599634;34;20452;-72
2021/08/23 13:53:20;;;;;;;2.58;2.38;;;;;;;27.58;39.52;101161.84;8600448;34;20929;-72
2021/08/23 13:58:23;;;;;;;5.97;2.70;;;;;;;25.85;43.02;101156.34;8583639;34;20696;-72
2021/08/23 14:03:33;;;;;;;3.28;2.20;;;;;;;24.16;44.62;101172.00;8544727;34;21695;-72
2021/08/23 14:08:36;;;;;;;2.55;1.90;;;;;;;22.82;46.37;101171.28;8543692;34;20260;-73
2021/08/23 14:13:39;;;;;;;2.90;1.77;;;;;;;22.19;48.89;101164.22;8543611;34;20147;-72
2021/08/23 14:18:44;;;;;;;1.80;1.70;;;;;;;24.19;43.23;101157.94;8545684;34;20216;-71
2021/08/23 14:23:47;;;;;;;1.92;1.50;;;;;;;25.76;39.59;101152.09;8548957;34;20151;-72
2021/08/23 14:28:50;;;;;;;2.65;1.50;;;;;;;26.76;38.71;101166.00;8548008;34;20190;-72
2021/08/23 14:33:54;;;;;;;1.83;1.42;;;;;;;26.90;36.93;101167.72;8548407;34;20197;-71
2021/08/23 14:38:57;;;;;;;1.98;1.50;;;;;;;27.47;35.90;101176.31;8548231;34;20204;-72
2021/08/23 14:44:00;;;;;;;1.67;1.30;;;;;;;26.56;35.79;101171.53;8547621;34;20158;-71
2021/08/23 14:49:06;;;;;;;3.58;1.60;;;;;;;25.23;37.89;101179.28;8548121;34;20181;-73
2021/08/23 14:54:09;;;;;;;3.10;1.60;;;;;;;24.32;40.11;101170.91;8547147;34;20134;-71
2021/08/23 14:59:12;;;;;;;1.65;1.40;;;;;;;26.12;38.41;101180.34;8547552;34;20640;-72
2021/08/23 15:04:17;;;;;;;2.35;1.23;;;;;;;26.52;36.54;101182.13;8547343;34;20607;-71
2021/08/23 15:09:20;;;;;;;1.20;1.10;;;;;;;26.61;35.74;101174.50;8547817;34;20328;-71
2021/08/23 15:14:23;;;;;;;3.45;1.25;;;;;;;25.74;37.26;101173.44;8547101;34;20680;-71
2021/08/23 15:19:27;;;;;;;2.58;1.27;;;;;;;26.05;36.32;101175.69;8549893;34;20293;-71
2021/08/23 15:24:30;;;;;;;1.88;1.50;;;;;;;26.49;35.28;101182.56;8543365;34;20677;-70
2021/08/23 15:29:33;;;;;;;2.03;1.13;;;;;;;26.08;34.80;101185.41;8572667;34;20261;-71
2021/08/23 15:34:39;;;;;;;1.52;1.38;;;;;;;25.97;35.27;101189.63;8575204;34;20138;-70
2021/08/23 15:39:42;;;;;;;1.20;1.10;;;;;;;25.29;34.36;101200.50;8574896;34;20191;-71
2021/08/23 15:44:46;;;;;;;2.50;1.60;;;;;;;25.71;33.78;101203.28;8573253;34;20147;-71
2021/08/23 15:49:50;;;;;;;2.97;1.58;;;;;;;26.07;34.31;101208.50;8573464;34;20201;-71
2021/08/23 15:54:53;;;;;;;2.50;1.50;;;;;;;26.24;33.74;101196.06;8597021;34;20556;-71
2021/08/23 15:59:56;;;;;;;1.88;1.30;;;;;;;26.12;33.02;101200.47;8602687;34;20532;-71
2021/08/23 16:05:01;;;;;;;2.00;1.65;;;;;;;26.19;33.86;101194.97;8602948;34;20276;-71
2021/08/23 16:10:05;;;;;;;2.42;1.75;;;;;;;26.05;33.82;101194.97;8602805;34;20737;-71
2021/08/23 16:15:11;;;;;;;2.63;1.50;;;;;;;25.62;35.09;101194.34;8603453;34;20279;-72
2021/08/23 16:20:16;;;;;;;3.83;2.03;;;;;;;25.51;34.41;101205.91;8603837;34;20221;-72
2021/08/23 16:25:19;;;;;;;3.70;1.92;;;;;;;25.51;34.23;101201.25;8579118;34;20192;-71
2021/08/23 16:30:22;;;;;;;4.07;1.70;;;;;;;25.54;34.55;101205.50;8602034;34;20272;-71
2021/08/23 16:35:27;;;;;;;5.60;1.65;;;;;;;25.48;34.74;101198.06;8601530;34;20185;-71
2021/08/23 16:40:30;;;;;;;2.75;1.95;;;;;;;25.15;35.94;101202.31;8596920;34;21540;-72
2021/08/23 16:45:34;;;;;;;3.60;1.80;;;;;;;25.10;35.86;101201.22;8598211;34;20192;-72
2021/08/23 16:50:39;;;;;;;2.50;1.67;;;;;;;24.57;36.09;101204.34;8601377;34;20239;-72
2021/08/23 16:55:42;;;;;;;2.63;1.63;;;;;;;24.49;37.56;101205.34;8573234;34;20194;-72
2021/08/23 17:00:45;;;;;;;2.70;1.85;;;;;;;24.24;37.53;101213.06;8576170;34;20188;-72
2021/08/23 17:06:10;;;;;;;2.40;1.50;;;;;;;24.13;37.64;101221.81;8573957;34;20239;-72
2021/08/23 17:11:13;;;;;;;3.65;2.55;;;;;;;23.62;38.74;101219.06;8574082;34;20199;-72
2021/08/23 17:16:16;;;;;;;2.40;1.50;;;;;;;23.24;39.81;101229.28;8561045;34;20185;-72
2021/08/23 17:21:21;;;;;;;3.30;1.50;;;;;;;22.88;39.97;101217.09;8531575;34;20170;-72
2021/08/23 17:26:26;;;;;;;2.75;1.63;;;;;;;22.86;40.12;101223.78;8570878;34;20198;-72
2021/08/23 17:31:29;;;;;;;2.30;1.50;;;;;;;23.73;38.68;101223.22;8593018;34;20708;-72
2021/08/23 17:36:34;;;;;;;1.48;1.38;;;;;;;23.14;38.98;101227.63;8600210;34;20280;-72
2021/08/23 17:41:37;;;;;;;2.45;1.80;;;;;;;21.98;41.83;101222.34;8600354;34;20464;-72
2021/08/23 17:46:40;;;;;;;2.53;1.60;;;;;;;21.10;43.47;101236.97;8551314;34;20540;-72
2021/08/23 17:51:45;;;;;;;2.72;1.58;;;;;;;20.53;44.09;101241.38;8543868;34;20189;-72
2021/08/23 17:56:48;;;;;;;1.92;1.48;;;;;;;20.06;45.18;101250.13;8543049;34;21503;-72
2021/08/23 18:01:52;;;;;;;3.45;1.55;;;;;;;19.90;45.59;101248.19;8543200;34;20155;-71
2021/08/23 18:06:57;;;;;;;2.28;1.52;;;;;;;19.72;46.14;101271.97;8543411;34;20460;-72
2021/08/23 18:12:00;;;;;;;2.10;1.50;;;;;;;19.43;46.77;101272.28;8543817;34;20671;-71
2021/08/23 18:17:04;;;;;;;2.72;1.50;;;;;;;19.24;47.55;101290.53;8542738;34;21674;-71
2021/08/23 18:22:09;;;;;;;3.00;1.73;;;;;;;19.11;48.39;101286.53;8554630;34;20189;-71
2021/08/23 18:27:12;;;;;;;3.35;1.48;;;;;;;18.87;50.09;101298.06;8571250;34;20321;-72
2021/08/23 18:32:15;;;;;;;2.25;1.50;;;;;;;18.56;51.38;101301.16;8569800;34;20744;-72
2021/08/23 18:37:20;;;;;;;2.20;2.00;;;;;;;18.34;51.98;101308.75;8568910;34;20703;-71
2021/08/23 18:42:23;;;;;;;2.75;1.77;;;;;;;18.26;53.37;101316.81;8543235;34;20293;-71
2021/08/23 18:47:26;;;;;;;4.15;2.05;;;;;;;18.12;53.54;101320.88;8548009;34;20181;-72
2021/08/23 18:52:31;;;;;;;4.43;1.98;;;;;;;18.07;53.88;101333.22;8586529;34;20215;-72
2021/08/23 18:57:35;;;;;;;2.53;1.52;;;;;;;17.88;54.98;101337.72;8598071;34;20717;-72
2021/08/23 19:02:38;;;;;;;3.17;1.73;;;;;;;17.66;56.33;101341.66;8592776;34;20198;-72
2021/08/23 19:07:43;;;;;;;1.52;1.42;;;;;;;17.62;56.83;101336.69;8557990;34;20893;-72
2021/08/23 19:12:46;;;;;;;2.30;1.45;;;;;;;17.52;56.57;101342.13;8564301;34;20737;-71
2021/08/23 19:17:49;;;;;;;3.97;1.88;;;;;;;17.46;57.01;101343.56;8538252;34;20252;-71
2021/08/23 19:22:54;;;;;;;2.65;1.60;;;;;;;17.39;57.21;101349.75;8544149;34;21632;-72
2021/08/23 19:27:57;;;;;;;2.70;1.92;;;;;;;17.27;57.44;101354.47;8560484;34;20150;-71
2021/08/23 19:33:00;;;;;;;2.42;1.75;;;;;;;17.28;57.23;101358.91;8545136;34;20193;-71
2021/08/23 19:38:05;;;;;;;2.78;1.90;;;;;;;17.25;57.47;101365.47;8545195;34;21849;-71
2021/08/23 19:43:08;;;;;;;3.55;1.90;;;;;;;17.15;58.39;101378.19;8547966;34;20276;-72
2021/08/23 19:48:11;;;;;;;3.80;2.00;;;;;;;16.98;59.92;101387.03;8546185;34;20604;-72
2021/08/23 19:53:16;;;;;;;5.25;1.98;;;;;;;16.96;60.19;101386.31;8546097;34;20178;-71
2021/08/23 19:58:20;;;;;;;2.95;1.83;;;;;;;16.96;60.52;101400.72;8545994;34;20189;-72
2021/08/23 20:03:24;;;;;;;6.13;2.05;;;;;;;16.91;60.63;101397.59;8547014;34;20192;-72
2021/08/23 20:08:27;;;;;;;4.28;2.00;;;;;;;16.79;60.59;101396.00;8550558;34;20414;-71
2021/08/23 20:13:31;;;;;;;3.47;1.65;;;;;;;16.68;60.74;101399.69;8595749;34;20482;-71
2021/08/23 20:18:34;;;;;;;3.55;2.10;;;;;;;16.63;60.47;101409.25;8602414;34;20251;-72
2021/08/23 20:23:37;;;;;;;2.13;1.85;;;;;;;16.52;61.24;101408.38;8603683;34;20145;-71
2021/08/23 20:28:42;;;;;;;3.35;1.95;;;;;;;16.49;60.53;101403.22;8602644;34;20145;-72
2021/08/23 20:33:47;;;;;;;2.22;1.75;;;;;;;16.31;61.67;101418.41;8603598;34;20236;-72
2021/08/23 20:38:50;;;;;;;2.35;1.70;;;;;;;16.26;61.54;101418.81;8605295;34;20268;-72
2021/08/23 20:43:56;;;;;;;4.10;1.70;;;;;;;16.27;61.12;101423.28;8605769;34;20662;-72
2021/08/23 20:49:00;;;;;;;4.30;1.77;;;;;;;16.31;60.50;101418.41;8573355;34;20199;-73
2021/08/23 20:54:04;;;;;;;4.75;1.92;;;;;;;16.22;60.70;101439.03;8600629;34;20189;-72
2021/08/23 20:59:09;;;;;;;3.90;2.00;;;;;;;16.17;61.58;101427.75;8596643;34;20992;-72
2021/08/23 21:04:12;;;;;;;4.15;1.70;;;;;;;16.15;61.50;101435.16;8596783;34;20205;-73
2021/08/23 21:09:15;;;;;;;1.90;1.70;;;;;;;16.23;60.03;101435.31;8600171;34;20201;-72
2021/08/23 21:14:20;;;;;;;1.75;1.58;;;;;;;16.07;58.11;101443.97;8599372;34;20253;-72
2021/08/23 21:19:23;;;;;;;2.60;1.80;;;;;;;16.03;59.31;101450.66;8601996;34;20193;-73
2021/08/23 21:24:26;;;;;;;1.83;1.48;;;;;;;15.92;59.18;101448.00;8608847;34;20193;-72
2021/08/23 21:29:30;;;;;;;1.80;1.48;;;;;;;15.84;57.95;101453.25;8588422;34;20799;-73
2021/08/23 21:34:34;;;;;;;3.83;1.70;;;;;;;15.70;62.37;101457.16;8610421;34;20138;-73
2021/08/23 21:39:37;;;;;;;2.05;1.75;;;;;;;15.50;63.92;101455.28;8610296;34;20279;-73
2021/08/23 21:44:41;;;;;;;1.65;1.55;;;;;;;15.41;64.17;101446.09;8609401;34;20181;-72
2021/08/23 21:49:44;;;;;;;2.08;1.48;;;;;;;15.34;62.39;101453.00;8611740;34;20217;-73
2021/08/23 21:54:47;;;;;;;2.83;1.40;;;;;;;15.25;62.37;101460.03;8613775;34;20185;-72
2021/08/23 21:59:51;;;;;;;2.22;1.52;;;;;;;15.15;62.46;101461.78;8608056;34;20185;-72
2021/08/23 22:04:54;;;;;;;3.95;1.80;;;;;;;15.15;61.67;101459.94;8610234;34;20423;-73
2021/08/23 22:09:58;;;;;;;2.20;1.65;;;;;;;14.97;61.71;101458.75;8605073;34;20451;-73
2021/08/23 22:15:05;;;;;;;2.45;1.73;;;;;;;14.88;61.16;101462.22;8602220;34;20622;-72
2021/08/23 22:20:11;;;;;;;1.77;1.65;;;;;;;14.86;61.65;101464.19;8600345;34;20176;-72
2021/08/23 22:25:14;;;;;;;2.42;1.80;;;;;;;14.82;61.81;101466.31;8599869;34;20312;-72
2021/08/23 22:30:22;;;;;;;1.85;1.67;;;;;;;14.75;62.69;101467.78;8600432;34;20138;-73
2021/08/23 22:35:25;;;;;;;2.58;1.80;;;;;;;14.59;63.48;101462.78;8599884;34;20437;-72
2021/08/23 22:40:28;;;;;;;4.30;1.80;;;;;;;14.50;63.32;101468.91;8580290;34;20196;-72
2021/08/23 22:45:33;;;;;;;2.33;1.60;;;;;;;14.42;63.75;101466.81;8607647;34;20142;-72
2021/08/23 22:50:37;;;;;;;1.90;1.70;;;;;;;14.37;64.21;101469.88;8604369;34;20240;-72
2021/08/23 22:55:40;;;;;;;1.85;1.60;;;;;;;14.39;64.05;101467.06;8604555;34;20255;-71
2021/08/23 23:00:45;;;;;;;3.80;2.17;;;;;;;14.32;63.80;101468.53;8604130;34;20185;-72
2021/08/23 23:05:48;;;;;;;2.03;1.52;;;;;;;14.19;64.22;101474.03;8603888;34;20150;-72
2021/08/23 23:10:51;;;;;;;3.13;2.03;;;;;;;14.06;63.92;101474.13;8604433;34;20437;-72
2021/08/23 23:15:56;;;;;;;3.50;1.80;;;;;;;14.07;64.17;101475.88;8603420;34;21000;-72
2021/08/23 23:20:59;;;;;;;3.33;1.85;;;;;;;14.08;63.80;101474.03;8603650;34;20587;-72
2021/08/23 23:26:03;;;;;;;4.32;1.88;;;;;;;14.13;63.29;101470.00;8603404;34;20192;-73
2021/08/23 23:31:07;;;;;;;3.10;1.95;;;;;;;14.09;63.79;101475.75;8603602;34;20643;-72
2021/08/23 23:36:10;;;;;;;2.72;1.70;;;;;;;14.06;64.84;101473.28;8602903;34;20142;-73